sensor_id;sensor_type;location;lat;lon;timestamp;temperature;humidity
46900;DHT22;32647;49.382;7.078;2022-08-02T00:02:20;16.20;99.20
46900;DHT22;32647;49.382;7.078;2022-08-02T00:05:07;16.20;99.90
46900;DHT22;32647;49.382;7.078;2022-08-02T00:07:53;16.20;99.90
46900;DHT22;32647;49.382;7.078;2022-08-02T00:10:39;16.00;99.90
46900;DHT22;32647;49.382;7.078;2022-08-02T00:13:25;16.00;99.90
46900;DHT22;32647;49.382;7.078;2022-08-02T00:16:12;16.10;99.90
46900;DHT22;32647;49.382;7.078;2022-08-02T00:18:58;16.10;98.00
46900;DHT22;32647;49.382;7.078;2022-08-02T00:21:44;15.90;99.90
46900;DHT22;32647;49.382;7.078;2022-08-02T00:24:30;15.90;99.90
46900;DHT22;32647;49.382;7.078;2022-08-02T00:27:16;16.00;99.90
46900;DHT22;32647;49.382;7.078;2022-08-02T00:30:02;16.10;93.30
46900;DHT22;32647;49.382;7.078;2022-08-02T00:32:48;16.10;91.50
46900;DHT22;32647;49.382;7.078;2022-08-02T00:35:35;16.10;90.60
46900;DHT22;32647;49.382;7.078;2022-08-02T00:38:21;16.00;91.80
46900;DHT22;32647;49.382;7.078;2022-08-02T00:41:16;15.90;97.10
46900;DHT22;32647;49.382;7.078;2022-08-02T00:44:02;15.80;99.90
46900;DHT22;32647;49.382;7.078;2022-08-02T00:46:48;15.70;99.90
46900;DHT22;32647;49.382;7.078;2022-08-02T00:49:34;15.60;99.90
46900;DHT22;32647;49.382;7.078;2022-08-02T00:52:21;15.70;99.10
46900;DHT22;32647;49.382;7.078;2022-08-02T00:55:08;15.70;99.90
46900;DHT22;32647;49.382;7.078;2022-08-02T00:57:54;15.60;99.90
46900;DHT22;32647;49.382;7.078;2022-08-02T01:00:40;15.70;99.10
46900;DHT22;32647;49.382;7.078;2022-08-02T01:03:27;15.60;99.80
46900;DHT22;32647;49.382;7.078;2022-08-02T01:06:13;15.60;96.00
46900;DHT22;32647;49.382;7.078;2022-08-02T01:09:00;15.50;99.90
46900;DHT22;32647;49.382;7.078;2022-08-02T01:11:46;15.50;99.40
46900;DHT22;32647;49.382;7.078;2022-08-02T01:14:32;15.40;99.90
46900;DHT22;32647;49.382;7.078;2022-08-02T01:17:47;15.40;99.90
46900;DHT22;32647;49.382;7.078;2022-08-02T01:29:58;15.30;99.90
46900;DHT22;32647;49.382;7.078;2022-08-02T01:32:49;15.30;99.90
46900;DHT22;32647;49.382;7.078;2022-08-02T01:35:44;15.20;99.90
46900;DHT22;32647;49.382;7.078;2022-08-02T01:38:39;15.10;99.90
46900;DHT22;32647;49.382;7.078;2022-08-02T01:41:27;15.00;99.90
46900;DHT22;32647;49.382;7.078;2022-08-02T01:44:14;15.00;99.90
46900;DHT22;32647;49.382;7.078;2022-08-02T01:47:05;15.10;99.90
46900;DHT22;32647;49.382;7.078;2022-08-02T01:49:57;15.10;99.90
46900;DHT22;32647;49.382;7.078;2022-08-02T01:52:47;15.10;99.90
46900;DHT22;32647;49.382;7.078;2022-08-02T01:55:36;15.00;99.90
46900;DHT22;32647;49.382;7.078;2022-08-02T01:58:24;14.90;99.90
46900;DHT22;32647;49.382;7.078;2022-08-02T02:01:12;14.80;99.90
46900;DHT22;32647;49.382;7.078;2022-08-02T02:04:03;14.90;99.90
46900;DHT22;32647;49.382;7.078;2022-08-02T02:06:50;14.90;99.90
46900;DHT22;32647;49.382;7.078;2022-08-02T02:09:38;14.80;99.90
46900;DHT22;32647;49.382;7.078;2022-08-02T02:12:24;14.90;99.90
46900;DHT22;32647;49.382;7.078;2022-08-02T02:15:12;14.90;99.90
46900;DHT22;32647;49.382;7.078;2022-08-02T02:17:59;14.80;99.90
46900;DHT22;32647;49.382;7.078;2022-08-02T02:20:46;14.80;99.90
46900;DHT22;32647;49.382;7.078;2022-08-02T02:23:33;14.80;99.90
46900;DHT22;32647;49.382;7.078;2022-08-02T02:26:19;14.80;99.90
46900;DHT22;32647;49.382;7.078;2022-08-02T02:29:06;14.80;99.90
46900;DHT22;32647;49.382;7.078;2022-08-02T02:32:06;14.80;99.90
46900;DHT22;32647;49.382;7.078;2022-08-02T02:34:53;14.80;99.90
46900;DHT22;32647;49.382;7.078;2022-08-02T02:37:40;14.80;99.90
46900;DHT22;32647;49.382;7.078;2022-08-02T02:40:30;14.70;99.90
46900;DHT22;32647;49.382;7.078;2022-08-02T02:43:16;14.60;99.90
46900;DHT22;32647;49.382;7.078;2022-08-02T02:46:04;14.60;99.90
46900;DHT22;32647;49.382;7.078;2022-08-02T02:48:51;14.60;99.90
46900;DHT22;32647;49.382;7.078;2022-08-02T02:51:41;14.60;99.90
46900;DHT22;32647;49.382;7.078;2022-08-02T02:54:29;14.50;99.90
46900;DHT22;32647;49.382;7.078;2022-08-02T02:57:16;14.40;99.90
46900;DHT22;32647;49.382;7.078;2022-08-02T03:00:09;14.50;99.90
46900;DHT22;32647;49.382;7.078;2022-08-02T03:02:55;14.50;99.90
46900;DHT22;32647;49.382;7.078;2022-08-02T03:05:42;14.60;99.90
46900;DHT22;32647;49.382;7.078;2022-08-02T03:08:28;14.50;99.90
46900;DHT22;32647;49.382;7.078;2022-08-02T03:11:15;14.50;99.90
46900;DHT22;32647;49.382;7.078;2022-08-02T03:14:03;14.40;99.90
46900;DHT22;32647;49.382;7.078;2022-08-02T03:16:51;14.60;99.90
46900;DHT22;32647;49.382;7.078;2022-08-02T03:19:38;14.60;99.90
46900;DHT22;32647;49.382;7.078;2022-08-02T03:22:24;14.50;99.90
46900;DHT22;32647;49.382;7.078;2022-08-02T03:25:11;14.60;99.90
46900;DHT22;32647;49.382;7.078;2022-08-02T03:27:57;14.50;99.90
46900;DHT22;32647;49.382;7.078;2022-08-02T03:30:43;14.60;99.90
46900;DHT22;32647;49.382;7.078;2022-08-02T03:33:30;14.50;99.90
46900;DHT22;32647;49.382;7.078;2022-08-02T03:36:18;14.50;99.90
46900;DHT22;32647;49.382;7.078;2022-08-02T03:39:06;14.50;99.90
46900;DHT22;32647;49.382;7.078;2022-08-02T03:41:53;14.40;99.90
46900;DHT22;32647;49.382;7.078;2022-08-02T03:44:40;14.50;99.90
46900;DHT22;32647;49.382;7.078;2022-08-02T03:47:26;14.40;99.90
46900;DHT22;32647;49.382;7.078;2022-08-02T03:50:13;14.40;99.90
46900;DHT22;32647;49.382;7.078;2022-08-02T03:53:00;14.40;99.90
46900;DHT22;32647;49.382;7.078;2022-08-02T03:55:47;14.40;99.90
46900;DHT22;32647;49.382;7.078;2022-08-02T03:58:33;14.40;99.90
46900;DHT22;32647;49.382;7.078;2022-08-02T04:01:19;14.40;99.90
46900;DHT22;32647;49.382;7.078;2022-08-02T04:04:06;14.40;99.90
46900;DHT22;32647;49.382;7.078;2022-08-02T04:06:55;14.40;99.90
46900;DHT22;32647;49.382;7.078;2022-08-02T04:09:41;14.40;99.90
46900;DHT22;32647;49.382;7.078;2022-08-02T04:12:27;14.40;99.90
46900;DHT22;32647;49.382;7.078;2022-08-02T04:15:13;14.30;99.90
46900;DHT22;32647;49.382;7.078;2022-08-02T04:18:01;14.30;99.90
46900;DHT22;32647;49.382;7.078;2022-08-02T04:20:48;14.20;99.90
46900;DHT22;32647;49.382;7.078;2022-08-02T04:23:37;14.40;99.90
46900;DHT22;32647;49.382;7.078;2022-08-02T04:26:24;14.40;99.90
46900;DHT22;32647;49.382;7.078;2022-08-02T04:29:11;14.40;99.90
46900;DHT22;32647;49.382;7.078;2022-08-02T04:31:59;14.20;99.90
46900;DHT22;32647;49.382;7.078;2022-08-02T04:34:45;14.30;99.90
46900;DHT22;32647;49.382;7.078;2022-08-02T04:37:33;14.40;99.90
46900;DHT22;32647;49.382;7.078;2022-08-02T04:40:19;14.40;99.90
46900;DHT22;32647;49.382;7.078;2022-08-02T04:43:06;14.40;99.90
46900;DHT22;32647;49.382;7.078;2022-08-02T04:45:53;14.40;99.90
46900;DHT22;32647;49.382;7.078;2022-08-02T04:48:39;14.40;99.90
46900;DHT22;32647;49.382;7.078;2022-08-02T04:51:25;14.40;99.90
46900;DHT22;32647;49.382;7.078;2022-08-02T04:54:12;14.40;99.90
46900;DHT22;32647;49.382;7.078;2022-08-02T04:56:58;14.40;99.90
46900;DHT22;32647;49.382;7.078;2022-08-02T04:59:43;14.40;99.90
46900;DHT22;32647;49.382;7.078;2022-08-02T05:02:30;14.50;99.90
46900;DHT22;32647;49.382;7.078;2022-08-02T05:05:16;14.40;99.90
46900;DHT22;32647;49.382;7.078;2022-08-02T05:08:02;14.40;99.90
46900;DHT22;32647;49.382;7.078;2022-08-02T05:10:48;14.50;99.90
46900;DHT22;32647;49.382;7.078;2022-08-02T05:16:09;14.60;99.90
46900;DHT22;32647;49.382;7.078;2022-08-02T05:21:29;14.70;99.90
46900;DHT22;32647;49.382;7.078;2022-08-02T05:24:16;14.70;99.90
46900;DHT22;32647;49.382;7.078;2022-08-02T05:27:02;14.80;99.90
46900;DHT22;32647;49.382;7.078;2022-08-02T05:29:48;14.80;99.90
46900;DHT22;32647;49.382;7.078;2022-08-02T05:32:47;14.80;99.90
46900;DHT22;32647;49.382;7.078;2022-08-02T05:35:33;15.00;99.90
46900;DHT22;32647;49.382;7.078;2022-08-02T05:38:19;15.10;99.90
46900;DHT22;32647;49.382;7.078;2022-08-02T05:41:05;15.30;99.90
46900;DHT22;32647;49.382;7.078;2022-08-02T05:43:51;15.40;99.90
46900;DHT22;32647;49.382;7.078;2022-08-02T05:46:37;15.40;99.90
46900;DHT22;32647;49.382;7.078;2022-08-02T05:49:23;15.40;99.90
46900;DHT22;32647;49.382;7.078;2022-08-02T05:52:17;15.50;99.90
46900;DHT22;32647;49.382;7.078;2022-08-02T05:55:16;15.70;99.90
46900;DHT22;32647;49.382;7.078;2022-08-02T06:01:08;16.00;99.90
46900;DHT22;32647;49.382;7.078;2022-08-02T06:03:58;16.10;99.90
46900;DHT22;32647;49.382;7.078;2022-08-02T06:06:48;16.20;98.20
46900;DHT22;32647;49.382;7.078;2022-08-02T06:09:37;16.30;99.90
46900;DHT22;32647;49.382;7.078;2022-08-02T06:12:28;16.40;99.30
46900;DHT22;32647;49.382;7.078;2022-08-02T06:15:18;16.60;99.30
46900;DHT22;32647;49.382;7.078;2022-08-02T06:18:05;16.70;98.10
46900;DHT22;32647;49.382;7.078;2022-08-02T06:20:52;16.80;93.90
46900;DHT22;32647;49.382;7.078;2022-08-02T06:23:41;16.90;93.40
46900;DHT22;32647;49.382;7.078;2022-08-02T06:26:27;17.10;92.70
46900;DHT22;32647;49.382;7.078;2022-08-02T06:29:14;17.30;91.10
46900;DHT22;32647;49.382;7.078;2022-08-02T06:32:00;17.60;84.40
46900;DHT22;32647;49.382;7.078;2022-08-02T06:34:46;17.80;76.80
46900;DHT22;32647;49.382;7.078;2022-08-02T06:37:42;18.00;65.40
46900;DHT22;32647;49.382;7.078;2022-08-02T06:40:32;18.20;59.70
46900;DHT22;32647;49.382;7.078;2022-08-02T06:46:06;18.50;32.90
46900;DHT22;32647;49.382;7.078;2022-08-02T06:48:52;18.60;45.00
46900;DHT22;32647;49.382;7.078;2022-08-02T06:51:39;18.70;50.60
46900;DHT22;32647;49.382;7.078;2022-08-02T06:54:25;18.80;41.10
46900;DHT22;32647;49.382;7.078;2022-08-02T06:57:11;19.00;30.80
46900;DHT22;32647;49.382;7.078;2022-08-02T06:59:57;19.00;35.80
46900;DHT22;32647;49.382;7.078;2022-08-02T07:02:46;19.10;9.30
46900;DHT22;32647;49.382;7.078;2022-08-02T07:05:33;19.10;13.10
46900;DHT22;32647;49.382;7.078;2022-08-02T07:08:19;19.20;15.20
46900;DHT22;32647;49.382;7.078;2022-08-02T07:11:07;19.20;1.00
46900;DHT22;32647;49.382;7.078;2022-08-02T07:13:53;19.30;1.00
46900;DHT22;32647;49.382;7.078;2022-08-02T07:16:39;19.50;1.00
46900;DHT22;32647;49.382;7.078;2022-08-02T07:19:25;19.50;1.00
46900;DHT22;32647;49.382;7.078;2022-08-02T07:22:11;19.50;1.00
46900;DHT22;32647;49.382;7.078;2022-08-02T07:24:58;19.60;1.00
46900;DHT22;32647;49.382;7.078;2022-08-02T07:27:44;19.80;1.00
46900;DHT22;32647;49.382;7.078;2022-08-02T07:30:31;19.80;1.00
46900;DHT22;32647;49.382;7.078;2022-08-02T07:33:17;19.90;1.00
46900;DHT22;32647;49.382;7.078;2022-08-02T07:36:04;20.10;99.90
46900;DHT22;32647;49.382;7.078;2022-08-02T07:38:50;20.40;99.90
46900;DHT22;32647;49.382;7.078;2022-08-02T07:41:36;20.60;41.60
46900;DHT22;32647;49.382;7.078;2022-08-02T07:44:22;20.80;1.00
46900;DHT22;32647;49.382;7.078;2022-08-02T07:47:08;21.00;49.00
46900;DHT22;32647;49.382;7.078;2022-08-02T07:49:54;21.20;45.30
46900;DHT22;32647;49.382;7.078;2022-08-02T07:52:41;21.40;99.90
46900;DHT22;32647;49.382;7.078;2022-08-02T07:55:28;21.50;1.00
46900;DHT22;32647;49.382;7.078;2022-08-02T07:58:14;21.70;1.00
46900;DHT22;32647;49.382;7.078;2022-08-02T08:01:01;21.80;99.90
46900;DHT22;32647;49.382;7.078;2022-08-02T08:03:49;22.00;1.00
46900;DHT22;32647;49.382;7.078;2022-08-02T08:06:35;22.10;1.00
46900;DHT22;32647;49.382;7.078;2022-08-02T08:09:21;22.20;1.00
46900;DHT22;32647;49.382;7.078;2022-08-02T08:12:08;22.30;99.90
46900;DHT22;32647;49.382;7.078;2022-08-02T08:14:54;22.70;99.90
46900;DHT22;32647;49.382;7.078;2022-08-02T08:17:40;22.90;99.90
46900;DHT22;32647;49.382;7.078;2022-08-02T08:20:26;22.90;99.90
46900;DHT22;32647;49.382;7.078;2022-08-02T08:23:12;23.00;99.90
46900;DHT22;32647;49.382;7.078;2022-08-02T08:25:58;23.20;64.30
46900;DHT22;32647;49.382;7.078;2022-08-02T08:28:45;23.40;1.00
46900;DHT22;32647;49.382;7.078;2022-08-02T08:31:31;23.60;1.00
46900;DHT22;32647;49.382;7.078;2022-08-02T08:34:17;23.90;1.00
46900;DHT22;32647;49.382;7.078;2022-08-02T08:37:03;24.20;1.00
46900;DHT22;32647;49.382;7.078;2022-08-02T08:39:49;24.30;1.00
46900;DHT22;32647;49.382;7.078;2022-08-02T08:42:37;24.40;99.90
46900;DHT22;32647;49.382;7.078;2022-08-02T08:45:23;24.50;99.90
46900;DHT22;32647;49.382;7.078;2022-08-02T08:48:12;24.60;99.90
46900;DHT22;32647;49.382;7.078;2022-08-02T08:51:11;25.00;99.90
46900;DHT22;32647;49.382;7.078;2022-08-02T08:54:01;25.10;99.90
46900;DHT22;32647;49.382;7.078;2022-08-02T08:56:48;25.20;99.90
46900;DHT22;32647;49.382;7.078;2022-08-02T08:59:35;25.20;99.90
46900;DHT22;32647;49.382;7.078;2022-08-02T09:02:22;25.10;99.90
46900;DHT22;32647;49.382;7.078;2022-08-02T09:05:13;25.00;99.90
46900;DHT22;32647;49.382;7.078;2022-08-02T09:07:59;24.80;99.90
46900;DHT22;32647;49.382;7.078;2022-08-02T09:10:46;24.70;99.90
46900;DHT22;32647;49.382;7.078;2022-08-02T09:13:33;24.90;99.90
46900;DHT22;32647;49.382;7.078;2022-08-02T09:16:37;25.50;99.90
46900;DHT22;32647;49.382;7.078;2022-08-02T09:19:26;26.20;99.90
46900;DHT22;32647;49.382;7.078;2022-08-02T09:22:14;26.40;99.90
46900;DHT22;32647;49.382;7.078;2022-08-02T09:25:00;26.00;99.90
46900;DHT22;32647;49.382;7.078;2022-08-02T09:27:47;26.30;99.90
46900;DHT22;32647;49.382;7.078;2022-08-02T09:30:41;26.90;99.90
46900;DHT22;32647;49.382;7.078;2022-08-02T09:33:27;27.30;99.90
46900;DHT22;32647;49.382;7.078;2022-08-02T09:36:15;27.70;99.90
46900;DHT22;32647;49.382;7.078;2022-08-02T09:39:04;26.80;99.90
46900;DHT22;32647;49.382;7.078;2022-08-02T09:41:50;26.10;99.90
46900;DHT22;32647;49.382;7.078;2022-08-02T09:44:36;26.60;99.90
46900;DHT22;32647;49.382;7.078;2022-08-02T09:47:23;27.00;99.90
46900;DHT22;32647;49.382;7.078;2022-08-02T09:50:10;27.40;99.90
46900;DHT22;32647;49.382;7.078;2022-08-02T09:52:56;27.00;99.90
46900;DHT22;32647;49.382;7.078;2022-08-02T09:55:43;27.30;99.90
46900;DHT22;32647;49.382;7.078;2022-08-02T09:58:39;27.10;99.90
46900;DHT22;32647;49.382;7.078;2022-08-02T10:01:33;27.20;99.90
46900;DHT22;32647;49.382;7.078;2022-08-02T10:04:24;27.70;99.90
46900;DHT22;32647;49.382;7.078;2022-08-02T10:07:10;28.30;99.90
46900;DHT22;32647;49.382;7.078;2022-08-02T10:09:57;28.40;99.90
46900;DHT22;32647;49.382;7.078;2022-08-02T10:12:43;28.70;99.90
46900;DHT22;32647;49.382;7.078;2022-08-02T10:15:29;28.90;99.90
46900;DHT22;32647;49.382;7.078;2022-08-02T10:18:15;29.30;99.90
46900;DHT22;32647;49.382;7.078;2022-08-02T10:21:05;29.50;99.90
46900;DHT22;32647;49.382;7.078;2022-08-02T10:23:51;29.40;99.90
46900;DHT22;32647;49.382;7.078;2022-08-02T10:26:40;28.30;99.90
46900;DHT22;32647;49.382;7.078;2022-08-02T10:29:37;28.80;99.90
46900;DHT22;32647;49.382;7.078;2022-08-02T10:32:36;29.60;99.90
46900;DHT22;32647;49.382;7.078;2022-08-02T10:35:24;29.90;99.90
46900;DHT22;32647;49.382;7.078;2022-08-02T10:38:11;29.90;99.90
46900;DHT22;32647;49.382;7.078;2022-08-02T10:40:57;29.20;99.90
46900;DHT22;32647;49.382;7.078;2022-08-02T10:43:47;27.90;99.90
46900;DHT22;32647;49.382;7.078;2022-08-02T10:46:35;27.60;99.90
46900;DHT22;32647;49.382;7.078;2022-08-02T10:49:21;28.30;99.90
46900;DHT22;32647;49.382;7.078;2022-08-02T10:52:08;29.00;99.90
46900;DHT22;32647;49.382;7.078;2022-08-02T10:55:02;29.80;99.90
46900;DHT22;32647;49.382;7.078;2022-08-02T10:58:19;29.70;99.90
46900;DHT22;32647;49.382;7.078;2022-08-02T11:01:29;30.00;99.90
46900;DHT22;32647;49.382;7.078;2022-08-02T11:04:15;30.40;99.90
46900;DHT22;32647;49.382;7.078;2022-08-02T11:07:15;30.70;99.90
46900;DHT22;32647;49.382;7.078;2022-08-02T11:13:14;28.70;99.90
46900;DHT22;32647;49.382;7.078;2022-08-02T11:16:04;29.70;99.90
46900;DHT22;32647;49.382;7.078;2022-08-02T11:24:47;27.60;99.90
46900;DHT22;32647;49.382;7.078;2022-08-02T11:27:34;27.40;99.90
46900;DHT22;32647;49.382;7.078;2022-08-02T11:30:21;28.40;99.90
46900;DHT22;32647;49.382;7.078;2022-08-02T11:33:07;29.20;99.90
46900;DHT22;32647;49.382;7.078;2022-08-02T11:36:00;29.60;99.90
46900;DHT22;32647;49.382;7.078;2022-08-02T11:38:46;29.70;99.90
46900;DHT22;32647;49.382;7.078;2022-08-02T11:41:32;30.20;99.90
46900;DHT22;32647;49.382;7.078;2022-08-02T11:44:18;30.70;99.90
46900;DHT22;32647;49.382;7.078;2022-08-02T11:47:05;30.70;99.90
46900;DHT22;32647;49.382;7.078;2022-08-02T11:50:03;30.90;99.90
46900;DHT22;32647;49.382;7.078;2022-08-02T11:52:50;31.10;99.90
46900;DHT22;32647;49.382;7.078;2022-08-02T11:55:38;30.90;99.90
46900;DHT22;32647;49.382;7.078;2022-08-02T11:58:24;31.80;99.90
46900;DHT22;32647;49.382;7.078;2022-08-02T12:01:10;31.80;99.90
46900;DHT22;32647;49.382;7.078;2022-08-02T12:03:56;32.10;99.90
46900;DHT22;32647;49.382;7.078;2022-08-02T12:06:53;32.10;99.90
46900;DHT22;32647;49.382;7.078;2022-08-02T12:09:40;31.80;99.90
46900;DHT22;32647;49.382;7.078;2022-08-02T12:12:25;32.00;99.90
46900;DHT22;32647;49.382;7.078;2022-08-02T12:15:12;32.30;99.90
46900;DHT22;32647;49.382;7.078;2022-08-02T12:17:58;32.20;99.90
46900;DHT22;32647;49.382;7.078;2022-08-02T12:21:22;31.30;99.90
46900;DHT22;32647;49.382;7.078;2022-08-02T12:24:09;30.90;99.90
46900;DHT22;32647;49.382;7.078;2022-08-02T12:26:55;30.90;99.90
46900;DHT22;32647;49.382;7.078;2022-08-02T12:29:41;30.50;99.90
46900;DHT22;32647;49.382;7.078;2022-08-02T12:32:27;30.10;99.90
46900;DHT22;32647;49.382;7.078;2022-08-02T12:35:15;29.80;99.90
46900;DHT22;32647;49.382;7.078;2022-08-02T12:38:08;30.10;99.90
46900;DHT22;32647;49.382;7.078;2022-08-02T12:40:55;31.40;99.90
46900;DHT22;32647;49.382;7.078;2022-08-02T12:43:42;32.10;99.90
46900;DHT22;32647;49.382;7.078;2022-08-02T12:46:28;32.30;99.90
46900;DHT22;32647;49.382;7.078;2022-08-02T12:49:17;32.60;99.90
46900;DHT22;32647;49.382;7.078;2022-08-02T12:52:22;32.00;99.90
46900;DHT22;32647;49.382;7.078;2022-08-02T12:58:02;31.60;99.90
46900;DHT22;32647;49.382;7.078;2022-08-02T13:00:54;32.30;99.90
46900;DHT22;32647;49.382;7.078;2022-08-02T13:03:41;32.90;99.90
46900;DHT22;32647;49.382;7.078;2022-08-02T13:06:27;33.10;99.90
46900;DHT22;32647;49.382;7.078;2022-08-02T13:09:16;32.90;99.90
46900;DHT22;32647;49.382;7.078;2022-08-02T13:12:03;31.30;99.90
46900;DHT22;32647;49.382;7.078;2022-08-02T13:14:49;30.10;99.90
46900;DHT22;32647;49.382;7.078;2022-08-02T13:17:35;30.70;99.90
46900;DHT22;32647;49.382;7.078;2022-08-02T13:20:21;32.30;99.90
46900;DHT22;32647;49.382;7.078;2022-08-02T13:23:07;32.30;99.90
46900;DHT22;32647;49.382;7.078;2022-08-02T13:25:53;32.30;99.90
46900;DHT22;32647;49.382;7.078;2022-08-02T13:28:39;31.60;99.90
46900;DHT22;32647;49.382;7.078;2022-08-02T13:31:27;32.40;99.90
46900;DHT22;32647;49.382;7.078;2022-08-02T13:34:13;32.80;99.90
46900;DHT22;32647;49.382;7.078;2022-08-02T13:37:01;31.20;99.90
46900;DHT22;32647;49.382;7.078;2022-08-02T13:39:48;31.80;99.90
46900;DHT22;32647;49.382;7.078;2022-08-02T13:42:34;31.50;99.90
46900;DHT22;32647;49.382;7.078;2022-08-02T13:45:20;32.00;99.90
46900;DHT22;32647;49.382;7.078;2022-08-02T13:48:06;31.60;99.90
46900;DHT22;32647;49.382;7.078;2022-08-02T13:50:51;32.00;99.90
46900;DHT22;32647;49.382;7.078;2022-08-02T13:53:38;33.10;99.90
46900;DHT22;32647;49.382;7.078;2022-08-02T13:56:24;33.70;99.90
46900;DHT22;32647;49.382;7.078;2022-08-02T13:59:11;33.30;99.90
46900;DHT22;32647;49.382;7.078;2022-08-02T14:01:57;31.50;99.90
46900;DHT22;32647;49.382;7.078;2022-08-02T14:04:44;32.40;99.90
46900;DHT22;32647;49.382;7.078;2022-08-02T14:07:29;32.40;99.90
46900;DHT22;32647;49.382;7.078;2022-08-02T14:10:15;32.20;99.90
46900;DHT22;32647;49.382;7.078;2022-08-02T14:13:01;31.30;99.90
46900;DHT22;32647;49.382;7.078;2022-08-02T14:15:48;31.60;99.90
46900;DHT22;32647;49.382;7.078;2022-08-02T14:18:34;31.30;99.90
46900;DHT22;32647;49.382;7.078;2022-08-02T14:21:20;30.50;99.90
46900;DHT22;32647;49.382;7.078;2022-08-02T14:24:06;31.50;99.90
46900;DHT22;32647;49.382;7.078;2022-08-02T14:26:52;31.40;99.90
46900;DHT22;32647;49.382;7.078;2022-08-02T14:29:38;31.10;99.90
46900;DHT22;32647;49.382;7.078;2022-08-02T14:32:24;31.40;99.90
46900;DHT22;32647;49.382;7.078;2022-08-02T14:35:10;31.60;99.90
46900;DHT22;32647;49.382;7.078;2022-08-02T14:37:56;31.30;99.90
46900;DHT22;32647;49.382;7.078;2022-08-02T14:40:42;31.90;99.90
46900;DHT22;32647;49.382;7.078;2022-08-02T14:43:28;31.50;99.90
46900;DHT22;32647;49.382;7.078;2022-08-02T14:46:38;31.80;99.90
46900;DHT22;32647;49.382;7.078;2022-08-02T14:49:26;32.00;99.90
46900;DHT22;32647;49.382;7.078;2022-08-02T14:52:12;32.50;99.90
46900;DHT22;32647;49.382;7.078;2022-08-02T14:54:58;32.90;99.90
46900;DHT22;32647;49.382;7.078;2022-08-02T14:57:44;32.90;99.90
46900;DHT22;32647;49.382;7.078;2022-08-02T15:00:31;31.90;99.90
46900;DHT22;32647;49.382;7.078;2022-08-02T15:03:16;31.30;99.90
46900;DHT22;32647;49.382;7.078;2022-08-02T15:06:03;31.40;99.90
46900;DHT22;32647;49.382;7.078;2022-08-02T15:08:49;31.80;99.90
46900;DHT22;32647;49.382;7.078;2022-08-02T15:11:35;31.60;99.90
46900;DHT22;32647;49.382;7.078;2022-08-02T15:14:23;31.80;99.90
46900;DHT22;32647;49.382;7.078;2022-08-02T15:17:09;31.10;99.90
46900;DHT22;32647;49.382;7.078;2022-08-02T15:19:55;30.80;99.90
46900;DHT22;32647;49.382;7.078;2022-08-02T15:22:41;31.00;99.90
46900;DHT22;32647;49.382;7.078;2022-08-02T15:25:27;30.80;99.90
46900;DHT22;32647;49.382;7.078;2022-08-02T15:28:13;30.50;99.90
46900;DHT22;32647;49.382;7.078;2022-08-02T15:30:59;30.70;99.90
46900;DHT22;32647;49.382;7.078;2022-08-02T15:33:45;30.90;99.90
46900;DHT22;32647;49.382;7.078;2022-08-02T15:36:31;30.10;99.90
46900;DHT22;32647;49.382;7.078;2022-08-02T15:39:17;30.00;99.90
46900;DHT22;32647;49.382;7.078;2022-08-02T15:42:03;29.60;99.90
46900;DHT22;32647;49.382;7.078;2022-08-02T15:44:49;29.90;99.90
46900;DHT22;32647;49.382;7.078;2022-08-02T15:47:35;30.30;99.90
46900;DHT22;32647;49.382;7.078;2022-08-02T15:50:21;29.90;99.90
46900;DHT22;32647;49.382;7.078;2022-08-02T15:53:07;29.50;99.90
46900;DHT22;32647;49.382;7.078;2022-08-02T15:55:53;29.30;99.90
46900;DHT22;32647;49.382;7.078;2022-08-02T15:58:41;29.30;99.90
46900;DHT22;32647;49.382;7.078;2022-08-02T16:01:27;29.30;99.90
46900;DHT22;32647;49.382;7.078;2022-08-02T16:04:13;29.60;99.90
46900;DHT22;32647;49.382;7.078;2022-08-02T16:06:59;29.40;99.90
46900;DHT22;32647;49.382;7.078;2022-08-02T16:09:45;29.30;99.90
46900;DHT22;32647;49.382;7.078;2022-08-02T16:12:31;29.10;99.90
46900;DHT22;32647;49.382;7.078;2022-08-02T16:15:17;29.30;99.90
46900;DHT22;32647;49.382;7.078;2022-08-02T16:18:03;29.70;99.90
46900;DHT22;32647;49.382;7.078;2022-08-02T16:20:49;30.20;99.90
46900;DHT22;32647;49.382;7.078;2022-08-02T16:23:35;29.90;99.90
46900;DHT22;32647;49.382;7.078;2022-08-02T16:26:22;29.40;99.90
46900;DHT22;32647;49.382;7.078;2022-08-02T16:29:13;29.30;99.90
46900;DHT22;32647;49.382;7.078;2022-08-02T16:32:01;29.00;99.90
46900;DHT22;32647;49.382;7.078;2022-08-02T16:34:46;28.90;99.90
46900;DHT22;32647;49.382;7.078;2022-08-02T16:37:32;29.00;99.90
46900;DHT22;32647;49.382;7.078;2022-08-02T16:40:19;28.70;99.90
46900;DHT22;32647;49.382;7.078;2022-08-02T16:43:05;28.90;99.90
46900;DHT22;32647;49.382;7.078;2022-08-02T16:45:51;28.90;99.90
46900;DHT22;32647;49.382;7.078;2022-08-02T16:48:37;28.90;99.90
46900;DHT22;32647;49.382;7.078;2022-08-02T16:51:23;28.90;99.90
46900;DHT22;32647;49.382;7.078;2022-08-02T16:54:11;28.70;99.90
46900;DHT22;32647;49.382;7.078;2022-08-02T16:56:57;28.60;99.90
46900;DHT22;32647;49.382;7.078;2022-08-02T16:59:43;28.60;99.90
46900;DHT22;32647;49.382;7.078;2022-08-02T17:02:29;28.60;99.90
46900;DHT22;32647;49.382;7.078;2022-08-02T17:05:15;28.40;99.90
46900;DHT22;32647;49.382;7.078;2022-08-02T17:08:02;28.60;99.90
46900;DHT22;32647;49.382;7.078;2022-08-02T17:10:48;28.60;99.90
46900;DHT22;32647;49.382;7.078;2022-08-02T17:13:34;28.70;99.90
46900;DHT22;32647;49.382;7.078;2022-08-02T17:16:20;28.90;99.90
46900;DHT22;32647;49.382;7.078;2022-08-02T17:19:06;28.90;99.90
46900;DHT22;32647;49.382;7.078;2022-08-02T17:21:52;28.90;99.90
46900;DHT22;32647;49.382;7.078;2022-08-02T17:24:38;29.00;99.90
46900;DHT22;32647;49.382;7.078;2022-08-02T17:27:24;29.10;99.90
46900;DHT22;32647;49.382;7.078;2022-08-02T17:30:11;29.10;99.90
46900;DHT22;32647;49.382;7.078;2022-08-02T17:32:57;29.10;99.90
46900;DHT22;32647;49.382;7.078;2022-08-02T17:35:43;29.00;99.90
46900;DHT22;32647;49.382;7.078;2022-08-02T17:38:29;28.80;99.90
46900;DHT22;32647;49.382;7.078;2022-08-02T17:41:15;28.80;99.90
46900;DHT22;32647;49.382;7.078;2022-08-02T17:44:01;28.70;99.90
46900;DHT22;32647;49.382;7.078;2022-08-02T17:46:47;28.80;99.90
46900;DHT22;32647;49.382;7.078;2022-08-02T17:49:33;28.90;99.90
46900;DHT22;32647;49.382;7.078;2022-08-02T17:52:21;29.00;99.90
46900;DHT22;32647;49.382;7.078;2022-08-02T17:55:08;28.80;99.90
46900;DHT22;32647;49.382;7.078;2022-08-02T17:57:55;29.10;99.90
46900;DHT22;32647;49.382;7.078;2022-08-02T18:00:41;29.30;99.90
46900;DHT22;32647;49.382;7.078;2022-08-02T18:03:27;29.00;99.90
46900;DHT22;32647;49.382;7.078;2022-08-02T18:06:13;29.00;99.90
46900;DHT22;32647;49.382;7.078;2022-08-02T18:08:59;29.10;99.90
46900;DHT22;32647;49.382;7.078;2022-08-02T18:11:45;29.40;99.90
46900;DHT22;32647;49.382;7.078;2022-08-02T18:14:31;29.30;99.90